Time;durP1;ratioP1;P1;durP2;ratioP2;P2;SDS_P1;SDS_P2;PMS_P1;PMS_P2;Temp;Humidity;BMP_temperature;BMP_pressure;BME280_temperature;BME280_humidity;BME280_pressure;Samples;Min_cycle;Max_cycle;Signal;HPM_P1;HPM_P2
2024/03/13 00:00:17;;;;;;;9.05;4.10;;;;;;;;;;7247477;24;24568;-84
2024/03/13 00:03:34;;;;;;;70.43;29.83;;;;;;;;;;7372987;23;24390;-83
2024/03/13 00:06:44;;;;;;;10.35;4.43;;;;;;;;;;7524339;23;24387;-82
2024/03/13 00:09:56;;;;;;;22.20;10.00;;;;;;;;;;7637599;22;24528;-85
2024/03/13 00:27:21;;;;;;;5.03;2.60;;;;;;;;;;6262251;28;24426;-82
2024/03/13 00:31:04;;;;;;;6.38;2.53;;;;;;;;;;6265451;28;24423;-83
2024/03/13 00:34:15;;;;;;;5.50;2.50;;;;;;;;;;6171432;28;24444;-82
2024/03/13 00:37:26;;;;;;;3.83;2.55;;;;;;;;;;6167677;28;24503;-83
2024/03/13 00:40:55;;;;;;;;;;;;;;;;;;;;;
2024/03/13 00:44:26;;;;;;;6.03;2.70;;;;;;;;;;6229306;28;24500;-81
2024/03/13 00:47:39;;;;;;;;;;;;;;;;;;;;;
2024/03/13 00:50:41;;;;;;;7.07;2.70;;;;;;;;;;6239930;28;25431;-81
2024/03/13 00:53:49;;;;;;;6.88;2.67;;;;;;;;;;6241048;28;24420;-81
2024/03/13 00:56:57;;;;;;;4.68;2.55;;;;;;;;;;6238155;28;24582;-82
2024/03/13 01:00:09;;;;;;;4.95;2.42;;;;;;;;;;6237218;28;24453;-82
2024/03/13 01:06:56;;;;;;;7.30;2.90;;;;;;;;;;6185694;28;24427;-82
2024/03/13 01:10:02;;;;;;;8.13;2.83;;;;;;;;;;6246105;28;24491;-81
2024/03/13 01:13:05;;;;;;;8.38;2.83;;;;;;;;;;6247429;28;25119;-82
2024/03/13 01:16:08;;;;;;;6.07;2.45;;;;;;;;;;6268620;28;24451;-82
2024/03/13 01:19:09;;;;;;;7.00;2.72;;;;;;;;;;6256380;28;24424;-82
2024/03/13 01:22:12;;;;;;;6.63;2.47;;;;;;;;;;6252961;28;24827;-82
2024/03/13 01:25:19;;;;;;;5.30;2.43;;;;;;;;;;6254739;28;24948;-81
2024/03/13 01:28:21;;;;;;;7.68;2.47;;;;;;;;;;6243697;28;24513;-81
2024/03/13 01:31:24;;;;;;;5.53;2.35;;;;;;;;;;6261498;28;25214;-81
2024/03/13 01:34:25;;;;;;;5.50;2.72;;;;;;;;;;6238798;28;24405;-80
2024/03/13 01:57:32;;;;;;;8.02;2.60;;;;;;;;;;6238130;28;24417;-79
2024/03/13 02:03:56;;;;;;;6.47;2.80;;;;;;;;;;6236653;28;24610;-79
2024/03/13 02:06:59;;;;;;;7.82;3.00;;;;;;;;;;6234375;28;24516;-80
2024/03/13 02:10:04;;;;;;;7.68;2.58;;;;;;;;;;6241082;28;24493;-79
2024/03/13 02:13:09;;;;;;;6.53;2.55;;;;;;;;;;6236350;28;24567;-80
2024/03/13 02:16:14;;;;;;;6.72;2.90;;;;;;;;;;6239026;28;24427;-79
2024/03/13 02:19:34;;;;;;;6.93;2.57;;;;;;;;;;6243220;28;25011;-80
2024/03/13 02:22:36;;;;;;;6.28;2.55;;;;;;;;;;6249756;28;24568;-80
2024/03/13 02:25:39;;;;;;;5.35;2.50;;;;;;;;;;6256665;28;24425;-81
2024/03/13 02:28:41;;;;;;;6.70;2.50;;;;;;;;;;6262226;28;24418;-79
2024/03/13 02:31:42;;;;;;;5.45;2.50;;;;;;;;;;6260029;28;24415;-80
2024/03/13 02:34:46;;;;;;;7.23;2.67;;;;;;;;;;6258975;28;24423;-80
2024/03/13 02:37:47;;;;;;;7.23;2.77;;;;;;;;;;6261034;28;25325;-79
2024/03/13 02:40:53;;;;;;;6.00;2.38;;;;;;;;;;6258248;28;24426;-80
2024/03/13 02:43:57;;;;;;;6.47;2.58;;;;;;;;;;6256453;28;25077;-80
2024/03/13 02:46:58;;;;;;;6.70;3.00;;;;;;;;;;6258730;28;24430;-79
2024/03/13 02:53:15;;;;;;;6.07;2.60;;;;;;;;;;6257620;28;24555;-80
2024/03/13 02:56:17;;;;;;;7.75;2.85;;;;;;;;;;6256534;28;24506;-82
2024/03/13 02:59:20;;;;;;;10.90;3.15;;;;;;;;;;6254858;28;24430;-79
2024/03/13 03:02:21;;;;;;;13.52;3.55;;;;;;;;;;6256710;28;25036;-79
2024/03/13 03:05:24;;;;;;;12.63;3.22;;;;;;;;;;6260632;28;25380;-80
2024/03/13 03:08:26;;;;;;;11.10;3.20;;;;;;;;;;6255048;28;24427;-79
2024/03/13 03:11:30;;;;;;;9.57;3.42;;;;;;;;;;6254835;28;25010;-79
2024/03/13 03:14:32;;;;;;;9.38;2.80;;;;;;;;;;6254974;28;24436;-80
2024/03/13 03:17:36;;;;;;;8.32;3.10;;;;;;;;;;6259139;28;25225;-79
2024/03/13 03:21:04;;;;;;;7.85;3.00;;;;;;;;;;6259583;28;24506;-80
2024/03/13 03:24:06;;;;;;;6.65;2.80;;;;;;;;;;6255481;28;24482;-81
2024/03/13 03:27:07;;;;;;;9.82;2.70;;;;;;;;;;6260569;28;24831;-79
2024/03/13 03:30:11;;;;;;;6.68;2.60;;;;;;;;;;6257025;28;24410;-80
2024/03/13 03:33:13;;;;;;;5.72;2.42;;;;;;;;;;6251032;28;24414;-80
2024/03/13 03:42:48;;;;;;;7.35;2.25;;;;;;;;;;6270148;28;24432;-79
2024/03/13 03:45:50;;;;;;;4.47;1.90;;;;;;;;;;6261805;28;25261;-79
2024/03/13 03:48:52;;;;;;;7.35;1.85;;;;;;;;;;6255568;28;24430;-79
2024/03/13 03:51:56;;;;;;;4.70;2.00;;;;;;;;;;6258984;28;24603;-80
2024/03/13 03:58:19;;;;;;;5.43;1.85;;;;;;;;;;6227972;28;24458;-81
2024/03/13 04:01:36;;;;;;;4.18;1.55;;;;;;;;;;6253380;28;24413;-79
2024/03/13 04:04:38;;;;;;;3.15;1.13;;;;;;;;;;6271643;28;24419;-80
2024/03/13 04:07:39;;;;;;;3.13;1.63;;;;;;;;;;6257469;28;24419;-81
2024/03/13 04:10:42;;;;;;;4.07;1.27;;;;;;;;;;6258122;28;24420;-79
2024/03/13 04:13:44;;;;;;;4.82;1.20;;;;;;;;;;6256803;28;25046;-80
2024/03/13 04:16:45;;;;;;;2.40;1.00;;;;;;;;;;6256284;28;24423;-79
2024/03/13 04:19:48;;;;;;;2.80;1.17;;;;;;;;;;6258489;28;24418;-79
2024/03/13 04:22:50;;;;;;;3.80;1.20;;;;;;;;;;6254514;28;25304;-79
2024/03/13 04:26:02;;;;;;;2.30;1.00;;;;;;;;;;6254802;28;24423;-80
2024/03/13 04:29:04;;;;;;;2.25;1.10;;;;;;;;;;6258549;28;24987;-80
2024/03/13 04:32:20;;;;;;;3.00;1.10;;;;;;;;;;6257212;28;24427;-80
2024/03/13 04:35:22;;;;;;;4.88;1.20;;;;;;;;;;6252905;28;24525;-79
2024/03/13 04:38:23;;;;;;;2.63;1.08;;;;;;;;;;6248227;28;25034;-80
2024/03/13 04:41:25;;;;;;;2.05;1.02;;;;;;;;;;6247192;28;24412;-79
2024/03/13 04:44:28;;;;;;;2.67;1.23;;;;;;;;;;6256848;28;24462;-79
2024/03/13 04:47:31;;;;;;;2.53;1.10;;;;;;;;;;6255119;28;24514;-79
2024/03/13 04:50:34;;;;;;;4.47;1.25;;;;;;;;;;6253681;28;24442;-79
2024/03/13 04:53:38;;;;;;;3.55;1.10;;;;;;;;;;6258431;28;25038;-81
2024/03/13 04:56:40;;;;;;;4.55;1.23;;;;;;;;;;6253472;28;24427;-79
2024/03/13 04:59:41;;;;;;;2.00;1.00;;;;;;;;;;6254649;28;24426;-81
2024/03/13 05:02:44;;;;;;;2.17;1.00;;;;;;;;;;6263254;28;24441;-79
2024/03/13 05:05:46;;;;;;;2.90;1.13;;;;;;;;;;6261897;28;24557;-81
2024/03/13 05:08:55;;;;;;;2.63;1.23;;;;;;;;;;6262592;28;24518;-80
2024/03/13 05:11:57;;;;;;;2.17;1.20;;;;;;;;;;6256763;28;24538;-79
2024/03/13 05:14:58;;;;;;;2.87;1.23;;;;;;;;;;6259250;28;24423;-79
2024/03/13 05:18:00;;;;;;;2.58;1.25;;;;;;;;;;6261119;28;24438;-80
2024/03/13 05:21:02;;;;;;;2.70;1.27;;;;;;;;;;6263731;28;24558;-79
2024/03/13 05:24:05;;;;;;;3.70;1.45;;;;;;;;;;6261152;28;24987;-79
2024/03/13 05:27:06;;;;;;;6.03;1.50;;;;;;;;;;6267082;28;24497;-80
2024/03/13 05:30:14;;;;;;;2.90;1.48;;;;;;;;;;6293392;28;24967;-79
2024/03/13 05:33:16;;;;;;;3.10;1.20;;;;;;;;;;6257558;28;24426;-79
2024/03/13 05:36:18;;;;;;;2.65;1.17;;;;;;;;;;6260972;28;24418;-80
2024/03/13 05:39:19;;;;;;;4.47;1.33;;;;;;;;;;6260124;28;24423;-80
2024/03/13 05:42:22;;;;;;;3.58;1.50;;;;;;;;;;6260534;28;24933;-80
2024/03/13 05:45:26;;;;;;;4.43;1.73;;;;;;;;;;6260819;28;24430;-80
2024/03/13 05:48:28;;;;;;;3.22;1.63;;;;;;;;;;6262772;28;24500;-79
2024/03/13 05:51:29;;;;;;;3.30;1.73;;;;;;;;;;6259162;28;24411;-79
2024/03/13 05:54:31;;;;;;;3.67;1.83;;;;;;;;;;6262000;28;24411;-80
2024/03/13 05:57:32;;;;;;;4.50;2.03;;;;;;;;;;6259886;28;24418;-80
2024/03/13 06:00:34;;;;;;;3.97;2.10;;;;;;;;;;6255555;28;24439;-80
2024/03/13 06:03:38;;;;;;;4.18;2.30;;;;;;;;;;6257758;28;24428;-81
2024/03/13 06:06:40;;;;;;;5.68;2.80;;;;;;;;;;6256583;28;24426;-80
2024/03/13 06:09:42;;;;;;;4.63;2.63;;;;;;;;;;6256786;28;24427;-80
2024/03/13 06:12:43;;;;;;;5.50;3.50;;;;;;;;;;6251039;28;24434;-79
2024/03/13 06:15:45;;;;;;;7.65;3.80;;;;;;;;;;6255960;28;24525;-80
2024/03/13 06:18:46;;;;;;;6.85;3.92;;;;;;;;;;6256537;28;25075;-79
2024/03/13 06:21:48;;;;;;;8.40;4.45;;;;;;;;;;6254432;28;24431;-81
2024/03/13 06:24:50;;;;;;;9.67;5.53;;;;;;;;;;6258394;28;24629;-79
2024/03/13 06:28:00;;;;;;;12.88;5.95;;;;;;;;;;6259841;28;24420;-81
2024/03/13 06:31:02;;;;;;;11.02;5.90;;;;;;;;;;6259088;28;24633;-82
2024/03/13 06:34:03;;;;;;;12.83;6.93;;;;;;;;;;6256663;28;24455;-79
2024/03/13 06:37:05;;;;;;;10.55;6.38;;;;;;;;;;6257042;28;24446;-79
2024/03/13 06:40:06;;;;;;;11.85;6.95;;;;;;;;;;6256917;28;24434;-80
2024/03/13 06:43:08;;;;;;;11.13;6.43;;;;;;;;;;6259102;28;24450;-80
2024/03/13 06:46:10;;;;;;;12.23;6.97;;;;;;;;;;6259083;28;24964;-80
2024/03/13 06:49:15;;;;;;;13.60;7.22;;;;;;;;;;6260710;28;24439;-79
2024/03/13 06:52:16;;;;;;;12.80;7.60;;;;;;;;;;6257996;28;24595;-78
2024/03/13 06:55:18;;;;;;;12.10;6.97;;;;;;;;;;6257409;28;24887;-80
2024/03/13 06:58:20;;;;;;;11.18;6.30;;;;;;;;;;6259469;28;25032;-80
2024/03/13 07:01:21;;;;;;;10.20;5.95;;;;;;;;;;6257166;28;24423;-80
2024/03/13 07:04:23;;;;;;;10.50;5.30;;;;;;;;;;6258136;28;24852;-80
2024/03/13 07:07:24;;;;;;;8.18;4.68;;;;;;;;;;6259822;28;25798;-80
2024/03/13 07:10:26;;;;;;;9.25;4.97;;;;;;;;;;6256206;28;24421;-81
2024/03/13 07:13:28;;;;;;;8.15;4.35;;;;;;;;;;6260800;28;24793;-79
2024/03/13 07:16:29;;;;;;;8.83;5.00;;;;;;;;;;6253117;28;24430;-81
2024/03/13 07:19:33;;;;;;;8.00;4.90;;;;;;;;;;6256911;28;24426;-81
2024/03/13 07:22:35;;;;;;;8.10;4.63;;;;;;;;;;6256348;28;24499;-79
2024/03/13 07:25:37;;;;;;;6.15;4.10;;;;;;;;;;6256592;28;24447;-79
2024/03/13 07:28:38;;;;;;;6.68;4.10;;;;;;;;;;6258858;28;24567;-80
2024/03/13 07:31:40;;;;;;;9.00;4.45;;;;;;;;;;6260291;28;24496;-80
2024/03/13 07:34:42;;;;;;;9.15;4.22;;;;;;;;;;6259215;28;24457;-80
2024/03/13 07:37:43;;;;;;;7.35;4.10;;;;;;;;;;6258635;28;24468;-81
2024/03/13 07:40:45;;;;;;;8.38;4.93;;;;;;;;;;6251073;28;24555;-79
2024/03/13 07:43:46;;;;;;;7.28;4.13;;;;;;;;;;6253896;28;24486;-80
2024/03/13 07:46:48;;;;;;;6.70;4.50;;;;;;;;;;6250974;28;24439;-80
2024/03/13 07:49:49;;;;;;;8.20;4.50;;;;;;;;;;6258366;28;24534;-79
2024/03/13 07:52:51;;;;;;;7.43;4.80;;;;;;;;;;6255561;28;25499;-80
2024/03/13 07:55:52;;;;;;;8.32;5.40;;;;;;;;;;6257380;28;24554;-80
2024/03/13 07:58:54;;;;;;;10.32;5.32;;;;;;;;;;6251046;28;24419;-81
2024/03/13 08:01:55;;;;;;;9.75;5.15;;;;;;;;;;6257837;28;25029;-81
2024/03/13 08:04:58;;;;;;;8.67;5.40;;;;;;;;;;6257206;28;24424;-79
2024/03/13 08:08:02;;;;;;;9.88;5.28;;;;;;;;;;6257194;28;24415;-81
2024/03/13 08:11:04;;;;;;;9.38;5.43;;;;;;;;;;6264090;28;24528;-81
2024/03/13 08:14:05;;;;;;;8.82;6.00;;;;;;;;;;6254664;28;24525;-80
2024/03/13 08:17:07;;;;;;;8.00;5.10;;;;;;;;;;6258847;28;25090;-81
2024/03/13 08:20:12;;;;;;;10.60;5.70;;;;;;;;;;6260991;28;24407;-81
2024/03/13 08:23:14;;;;;;;7.95;5.35;;;;;;;;;;6288908;28;24428;-81
2024/03/13 08:26:16;;;;;;;9.23;5.22;;;;;;;;;;6258159;28;24519;-80
2024/03/13 08:29:17;;;;;;;9.27;5.07;;;;;;;;;;6255769;28;24423;-80
2024/03/13 08:32:19;;;;;;;7.75;5.03;;;;;;;;;;6264040;28;24491;-80
2024/03/13 08:35:24;;;;;;;6.93;4.77;;;;;;;;;;6254937;28;24416;-81
2024/03/13 08:38:27;;;;;;;9.10;4.72;;;;;;;;;;6256649;28;24502;-80
2024/03/13 08:41:31;;;;;;;6.32;4.60;;;;;;;;;;6253815;28;24419;-82
2024/03/13 08:44:41;;;;;;;6.45;4.30;;;;;;;;;;6274157;28;24427;-80
2024/03/13 08:47:45;;;;;;;6.05;4.13;;;;;;;;;;6259983;28;24455;-80
2024/03/13 08:50:54;;;;;;;6.32;3.95;;;;;;;;;;6256537;28;24411;-81
2024/03/13 08:54:05;;;;;;;5.93;3.92;;;;;;;;;;6261150;28;25059;-81
2024/03/13 08:57:09;;;;;;;6.70;3.80;;;;;;;;;;6263543;28;24411;-80
2024/03/13 09:00:11;;;;;;;5.95;3.60;;;;;;;;;;6260577;28;24415;-80
2024/03/13 09:03:14;;;;;;;6.20;3.53;;;;;;;;;;6251845;28;24433;-80
2024/03/13 09:06:16;;;;;;;5.57;3.45;;;;;;;;;;6258133;28;24423;-82
2024/03/13 09:09:23;;;;;;;4.73;3.50;;;;;;;;;;6259122;28;24416;-81
2024/03/13 09:12:24;;;;;;;8.40;4.00;;;;;;;;;;6257505;28;24524;-80
2024/03/13 09:15:27;;;;;;;5.75;3.75;;;;;;;;;;6253634;28;24457;-81
2024/03/13 09:18:31;;;;;;;7.82;3.58;;;;;;;;;;6254892;28;24539;-81
2024/03/13 09:21:32;;;;;;;5.68;3.58;;;;;;;;;;6256230;28;24419;-80
2024/03/13 09:24:36;;;;;;;5.65;3.60;;;;;;;;;;6258129;28;24435;-81
2024/03/13 09:27:41;;;;;;;4.45;3.33;;;;;;;;;;6260451;28;24422;-82
2024/03/13 09:30:42;;;;;;;7.70;4.15;;;;;;;;;;6259974;28;24442;-80
2024/03/13 09:33:44;;;;;;;6.53;3.90;;;;;;;;;;6258972;28;24876;-82
2024/03/13 09:36:45;;;;;;;7.40;3.83;;;;;;;;;;6257585;28;25065;-83
2024/03/13 09:39:47;;;;;;;5.40;3.83;;;;;;;;;;6263629;28;24869;-81
2024/03/13 09:42:48;;;;;;;4.95;4.05;;;;;;;;;;6263407;28;24565;-81
2024/03/13 09:45:50;;;;;;;5.45;3.90;;;;;;;;;;6263988;28;24577;-79
2024/03/13 09:48:51;;;;;;;5.28;3.35;;;;;;;;;;6260591;28;24493;-81
2024/03/13 09:51:53;;;;;;;8.88;3.92;;;;;;;;;;6262824;28;24576;-82
2024/03/13 09:54:56;;;;;;;5.38;3.60;;;;;;;;;;6261030;28;24416;-81
2024/03/13 09:57:58;;;;;;;6.60;4.03;;;;;;;;;;6267661;28;24561;-80
2024/03/13 10:00:59;;;;;;;6.53;4.10;;;;;;;;;;6256117;28;24598;-81
2024/03/13 10:04:03;;;;;;;6.20;4.20;;;;;;;;;;6254865;28;25024;-81
2024/03/13 10:07:07;;;;;;;7.10;4.40;;;;;;;;;;6259277;28;24525;-82
2024/03/13 10:10:13;;;;;;;7.23;3.80;;;;;;;;;;6258690;28;24443;-82
2024/03/13 10:13:15;;;;;;;6.53;4.40;;;;;;;;;;6258537;28;25273;-82
2024/03/13 10:16:16;;;;;;;6.40;4.30;;;;;;;;;;6258541;28;24762;-81
2024/03/13 10:19:18;;;;;;;7.18;4.30;;;;;;;;;;6267844;28;24428;-80
2024/03/13 10:22:20;;;;;;;5.23;4.10;;;;;;;;;;6261616;28;25035;-82
2024/03/13 10:25:21;;;;;;;6.47;4.43;;;;;;;;;;6265316;28;24419;-81
2024/03/13 10:28:23;;;;;;;6.97;3.90;;;;;;;;;;6259508;28;24568;-81
2024/03/13 10:31:27;;;;;;;5.45;3.83;;;;;;;;;;6257735;28;24411;-80
2024/03/13 10:34:29;;;;;;;5.65;3.88;;;;;;;;;;6256535;28;24470;-81
2024/03/13 10:37:30;;;;;;;4.68;3.72;;;;;;;;;;6259051;28;24412;-81
2024/03/13 10:40:32;;;;;;;5.63;3.83;;;;;;;;;;6254392;28;24447;-80
2024/03/13 10:43:33;;;;;;;4.82;3.78;;;;;;;;;;6254565;28;24417;-82
2024/03/13 10:46:35;;;;;;;5.95;4.40;;;;;;;;;;6251665;28;24583;-81
2024/03/13 10:49:39;;;;;;;6.43;4.30;;;;;;;;;;6250607;28;25006;-81
2024/03/13 10:52:44;;;;;;;6.30;4.00;;;;;;;;;;6253125;28;24426;-82
2024/03/13 10:55:48;;;;;;;7.18;4.60;;;;;;;;;;6257773;28;24779;-81
2024/03/13 10:58:50;;;;;;;6.90;4.13;;;;;;;;;;6278146;28;24569;-82
2024/03/13 11:01:52;;;;;;;5.45;4.38;;;;;;;;;;6255731;28;24419;-81
2024/03/13 11:04:53;;;;;;;5.93;4.17;;;;;;;;;;6255579;28;24427;-81
2024/03/13 11:07:55;;;;;;;7.72;5.15;;;;;;;;;;6254964;28;24427;-81
2024/03/13 11:10:56;;;;;;;6.60;4.60;;;;;;;;;;6262437;28;24422;-81
2024/03/13 11:13:59;;;;;;;6.47;4.53;;;;;;;;;;6260344;28;24533;-82
2024/03/13 11:17:03;;;;;;;6.30;4.32;;;;;;;;;;6258116;28;24427;-83
2024/03/13 11:20:14;;;;;;;4.60;3.53;;;;;;;;;;6262152;28;24465;-80
2024/03/13 11:23:17;;;;;;;5.45;3.58;;;;;;;;;;6259668;28;24419;-81
2024/03/13 11:26:19;;;;;;;7.55;4.25;;;;;;;;;;6264086;28;24476;-80
2024/03/13 11:29:21;;;;;;;5.43;3.80;;;;;;;;;;6266136;28;24471;-80
2024/03/13 11:32:24;;;;;;;4.90;3.50;;;;;;;;;;6260973;28;24506;-80
2024/03/13 11:35:28;;;;;;;6.03;3.63;;;;;;;;;;6258147;28;24552;-82
2024/03/13 11:38:34;;;;;;;5.55;3.55;;;;;;;;;;6253430;28;24414;-80
2024/03/13 11:41:36;;;;;;;4.82;3.70;;;;;;;;;;6250707;28;24477;-81
2024/03/13 11:44:38;;;;;;;5.13;3.30;;;;;;;;;;6263820;28;24476;-80
2024/03/13 11:47:39;;;;;;;6.43;3.40;;;;;;;;;;6258540;28;24420;-81
2024/03/13 11:50:52;;;;;;;6.45;3.53;;;;;;;;;;6258263;28;24423;-83
2024/03/13 11:53:55;;;;;;;5.50;3.42;;;;;;;;;;6258947;28;24426;-80
2024/03/13 11:57:03;;;;;;;4.60;3.50;;;;;;;;;;6259549;28;25433;-80
2024/03/13 12:00:06;;;;;;;4.90;3.10;;;;;;;;;;6256940;28;24419;-81
2024/03/13 12:03:09;;;;;;;5.50;3.05;;;;;;;;;;6253348;28;24423;-81
2024/03/13 12:06:25;;;;;;;5.60;3.40;;;;;;;;;;6252987;28;24449;-80
2024/03/13 12:09:27;;;;;;;3.90;2.92;;;;;;;;;;6251730;28;24423;-81
2024/03/13 12:12:28;;;;;;;6.35;3.67;;;;;;;;;;6253940;28;24576;-80
2024/03/13 12:15:31;;;;;;;3.60;2.80;;;;;;;;;;6255298;28;24553;-80
2024/03/13 12:18:32;;;;;;;6.40;2.88;;;;;;;;;;6251798;28;24434;-80
2024/03/13 12:21:34;;;;;;;4.78;2.70;;;;;;;;;;6252940;28;24428;-81
2024/03/13 12:24:37;;;;;;;6.13;3.30;;;;;;;;;;6252309;28;24489;-81
2024/03/13 12:27:43;;;;;;;3.78;2.47;;;;;;;;;;6254535;28;24490;-82
2024/03/13 12:30:45;;;;;;;6.50;2.42;;;;;;;;;;6252273;28;24411;-81
2024/03/13 12:33:48;;;;;;;6.07;2.42;;;;;;;;;;6253477;28;24490;-81
2024/03/13 12:36:49;;;;;;;3.30;2.47;;;;;;;;;;6255397;28;24422;-78
2024/03/13 12:39:51;;;;;;;6.90;2.45;;;;;;;;;;6258780;28;24418;-81
2024/03/13 12:42:52;;;;;;;3.58;2.35;;;;;;;;;;6262637;28;24450;-80
2024/03/13 12:45:54;;;;;;;7.13;3.67;;;;;;;;;;6255049;28;24551;-79
2024/03/13 12:48:55;;;;;;;4.90;2.40;;;;;;;;;;6260243;28;24419;-78
2024/03/13 12:51:59;;;;;;;3.67;2.33;;;;;;;;;;6257441;28;24920;-81
2024/03/13 12:55:01;;;;;;;2.70;2.00;;;;;;;;;;6252459;28;24422;-81
2024/03/13 12:58:05;;;;;;;4.80;2.40;;;;;;;;;;6255829;28;24463;-81
2024/03/13 13:01:08;;;;;;;5.07;2.53;;;;;;;;;;6256276;28;24511;-80
2024/03/13 13:04:10;;;;;;;5.43;3.00;;;;;;;;;;6253320;28;24920;-80
2024/03/13 13:07:11;;;;;;;5.13;2.70;;;;;;;;;;6260723;28;24590;-80
2024/03/13 13:10:13;;;;;;;5.32;2.95;;;;;;;;;;6264905;28;25108;-80
2024/03/13 13:13:17;;;;;;;6.53;4.10;;;;;;;;;;6258710;28;24424;-80
2024/03/13 13:16:22;;;;;;;5.97;4.13;;;;;;;;;;6261205;28;24873;-80
2024/03/13 13:19:27;;;;;;;6.95;3.90;;;;;;;;;;6257392;28;24414;-80
2024/03/13 13:22:28;;;;;;;5.40;3.07;;;;;;;;;;6257594;28;24411;-80
2024/03/13 13:25:30;;;;;;;4.88;2.97;;;;;;;;;;6257412;28;24786;-80
2024/03/13 13:28:32;;;;;;;8.65;3.58;;;;;;;;;;6253575;28;24514;-84
2024/03/13 13:31:33;;;;;;;6.05;3.35;;;;;;;;;;6256807;28;24427;-80
2024/03/13 13:34:35;;;;;;;5.72;3.40;;;;;;;;;;6258239;28;24431;-80
2024/03/13 13:37:36;;;;;;;5.97;3.70;;;;;;;;;;6259249;28;24426;-80
2024/03/13 13:40:39;;;;;;;8.70;4.27;;;;;;;;;;6257336;28;24443;-82
2024/03/13 13:43:40;;;;;;;7.47;3.08;;;;;;;;;;6256555;28;25006;-80
2024/03/13 13:46:42;;;;;;;6.05;3.10;;;;;;;;;;6259547;28;24450;-81
2024/03/13 13:49:43;;;;;;;9.03;4.80;;;;;;;;;;6260031;28;24855;-80
2024/03/13 13:52:44;;;;;;;45.05;26.45;;;;;;;;;;6260753;28;24545;-79
2024/03/13 13:55:46;;;;;;;7.75;5.10;;;;;;;;;;6265293;28;24788;-82
2024/03/13 13:58:50;;;;;;;11.63;6.00;;;;;;;;;;6262443;28;24414;-79
2024/03/13 14:01:54;;;;;;;82.03;46.17;;;;;;;;;;6263802;28;25243;-79
2024/03/13 14:04:58;;;;;;;38.85;25.92;;;;;;;;;;6268341;28;24793;-82
2024/03/13 14:08:00;;;;;;;22.60;13.50;;;;;;;;;;6264621;28;24420;-82
2024/03/13 14:11:06;;;;;;;8.47;5.50;;;;;;;;;;6259277;28;24412;-80
2024/03/13 14:14:08;;;;;;;6.43;3.50;;;;;;;;;;6259529;28;24550;-81
2024/03/13 14:17:10;;;;;;;6.57;4.07;;;;;;;;;;6263188;28;24565;-81
2024/03/13 14:20:13;;;;;;;9.13;4.93;;;;;;;;;;6255728;28;24967;-80
2024/03/13 14:23:14;;;;;;;6.30;3.97;;;;;;;;;;6262072;28;25337;-80
2024/03/13 14:26:16;;;;;;;9.82;4.97;;;;;;;;;;6261141;28;24434;-80
2024/03/13 14:29:23;;;;;;;7.18;5.18;;;;;;;;;;6257785;28;24447;-81
2024/03/13 14:32:26;;;;;;;5.95;4.22;;;;;;;;;;6260881;28;24441;-80
2024/03/13 14:35:29;;;;;;;7.97;4.40;;;;;;;;;;6259203;28;26080;-81
2024/03/13 14:38:30;;;;;;;8.32;4.80;;;;;;;;;;6263273;28;24494;-82
2024/03/13 14:41:35;;;;;;;8.25;4.93;;;;;;;;;;6262367;28;24416;-80
2024/03/13 14:44:37;;;;;;;6.43;4.00;;;;;;;;;;6260344;28;24427;-80
2024/03/13 14:47:39;;;;;;;8.90;5.47;;;;;;;;;;6256987;28;24426;-82
2024/03/13 14:50:40;;;;;;;9.60;5.90;;;;;;;;;;6260565;28;24509;-80
2024/03/13 14:53:42;;;;;;;8.88;5.10;;;;;;;;;;6259838;28;24573;-80
2024/03/13 14:56:47;;;;;;;8.83;4.90;;;;;;;;;;6258363;28;24423;-80
2024/03/13 15:00:16;;;;;;;9.48;4.60;;;;;;;;;;6254826;28;24419;-80
2024/03/13 15:03:30;;;;;;;6.38;4.25;;;;;;;;;;6248459;28;24519;-81
2024/03/13 15:06:32;;;;;;;7.25;4.38;;;;;;;;;;6255747;28;24431;-80
2024/03/13 15:09:39;;;;;;;7.25;3.90;;;;;;;;;;6257086;28;24525;-80
2024/03/13 15:16:23;;;;;;;6.88;4.05;;;;;;;;;;6372877;27;20707;-82
2024/03/13 15:19:25;;;;;;;8.40;4.13;;;;;;;;;;6338598;27;24766;-81
2024/03/13 15:22:28;;;;;;;7.65;4.82;;;;;;;;;;6331788;27;24770;-81
2024/03/13 15:25:32;;;;;;;7.18;4.72;;;;;;;;;;6334717;27;24433;-80
2024/03/13 15:28:36;;;;;;;7.38;4.40;;;;;;;;;;6334682;27;24409;-83
2024/03/13 15:31:41;;;;;;;7.40;4.80;;;;;;;;;;6339479;27;24426;-81
2024/03/13 15:34:43;;;;;;;16.27;10.23;;;;;;;;;;6333788;27;24410;-80
2024/03/13 15:37:48;;;;;;;15.17;10.43;;;;;;;;;;6336894;27;25070;-81
2024/03/13 15:40:53;;;;;;;149.00;96.70;;;;;;;;;;6335275;27;24479;-80
2024/03/13 15:43:58;;;;;;;38.58;24.00;;;;;;;;;;6337052;27;25100;-82
2024/03/13 15:46:59;;;;;;;73.63;39.55;;;;;;;;;;6340642;27;24413;-81
2024/03/13 15:50:01;;;;;;;83.40;52.58;;;;;;;;;;6337707;27;25000;-80
2024/03/13 15:53:04;;;;;;;9.48;6.18;;;;;;;;;;6335543;27;24417;-81
2024/03/13 15:56:06;;;;;;;10.60;6.65;;;;;;;;;;6330379;27;24496;-82
2024/03/13 15:59:14;;;;;;;9.13;5.60;;;;;;;;;;6334377;27;24462;-83
2024/03/13 16:02:19;;;;;;;9.18;5.65;;;;;;;;;;6321123;28;24771;-82
2024/03/13 16:05:22;;;;;;;10.37;5.90;;;;;;;;;;6303739;28;24561;-82
2024/03/13 16:08:24;;;;;;;8.37;5.20;;;;;;;;;;6302612;28;25128;-82
2024/03/13 16:11:30;;;;;;;9.60;7.03;;;;;;;;;;6299746;28;25301;-82
2024/03/13 16:14:34;;;;;;;11.00;7.72;;;;;;;;;;6290247;28;24479;-81
2024/03/13 16:17:35;;;;;;;10.30;7.05;;;;;;;;;;6293126;28;24417;-81
2024/03/13 16:20:37;;;;;;;12.48;7.85;;;;;;;;;;6293901;28;24414;-81
2024/03/13 16:23:40;;;;;;;12.45;8.50;;;;;;;;;;6291650;28;24434;-80
2024/03/13 16:26:41;;;;;;;12.77;8.82;;;;;;;;;;6281537;28;24418;-82
2024/03/13 16:29:49;;;;;;;16.48;8.35;;;;;;;;;;6280602;28;24471;-81
2024/03/13 16:32:50;;;;;;;21.97;12.70;;;;;;;;;;6277177;28;24601;-81
2024/03/13 16:35:51;;;;;;;13.75;8.80;;;;;;;;;;6259512;28;25257;-80
2024/03/13 16:38:55;;;;;;;11.00;7.95;;;;;;;;;;6259595;28;24415;-81
2024/03/13 16:41:57;;;;;;;12.37;8.70;;;;;;;;;;6253992;28;24423;-78
2024/03/13 16:44:58;;;;;;;11.15;7.60;;;;;;;;;;6258213;28;24480;-80
2024/03/13 16:48:00;;;;;;;10.10;7.32;;;;;;;;;;6258580;28;24426;-81
2024/03/13 16:51:01;;;;;;;12.60;8.33;;;;;;;;;;6254512;28;24420;-81
2024/03/13 16:54:06;;;;;;;12.03;8.23;;;;;;;;;;6255590;28;24530;-81
2024/03/13 16:57:07;;;;;;;12.23;8.60;;;;;;;;;;6253832;28;24419;-81
2024/03/13 17:00:14;;;;;;;16.33;10.25;;;;;;;;;;6258396;28;24426;-80
2024/03/13 17:03:15;;;;;;;14.67;10.03;;;;;;;;;;6255672;28;24492;-81
2024/03/13 17:06:26;;;;;;;13.95;9.75;;;;;;;;;;6253691;28;24487;-79
2024/03/13 17:09:32;;;;;;;15.00;10.25;;;;;;;;;;6252512;28;24976;-81
2024/03/13 17:12:40;;;;;;;16.00;10.63;;;;;;;;;;6259188;28;24991;-78
2024/03/13 17:15:43;;;;;;;18.20;12.30;;;;;;;;;;6256105;28;24434;-79
2024/03/13 17:18:51;;;;;;;18.58;13.15;;;;;;;;;;6255108;28;24440;-80
2024/03/13 17:21:52;;;;;;;20.90;14.38;;;;;;;;;;6265573;28;24423;-81
2024/03/13 17:24:57;;;;;;;28.52;16.90;;;;;;;;;;6276599;28;24557;-79
2024/03/13 17:27:58;;;;;;;25.40;17.27;;;;;;;;;;6277435;28;24557;-80
2024/03/13 17:30:59;;;;;;;25.45;17.38;;;;;;;;;;6273000;28;25128;-79
2024/03/13 17:34:01;;;;;;;26.15;17.85;;;;;;;;;;6275893;28;24430;-80
2024/03/13 17:37:03;;;;;;;25.27;17.67;;;;;;;;;;6270452;28;25022;-80
2024/03/13 17:40:10;;;;;;;28.08;18.90;;;;;;;;;;6276145;28;24446;-79
2024/03/13 17:43:11;;;;;;;27.40;18.58;;;;;;;;;;6272414;28;24534;-78
2024/03/13 17:46:12;;;;;;;26.23;17.70;;;;;;;;;;6275136;28;24596;-79
2024/03/13 17:49:14;;;;;;;28.92;19.58;;;;;;;;;;6272475;28;24524;-79
2024/03/13 17:52:15;;;;;;;30.60;19.65;;;;;;;;;;6269577;28;24886;-81
2024/03/13 17:55:19;;;;;;;28.15;18.65;;;;;;;;;;6272905;28;24480;-79
2024/03/13 17:58:20;;;;;;;26.63;18.45;;;;;;;;;;6273376;28;25228;-78
2024/03/13 18:01:23;;;;;;;31.05;19.60;;;;;;;;;;6270524;28;24494;-80
2024/03/13 18:04:28;;;;;;;30.10;18.83;;;;;;;;;;6276096;28;24740;-79
2024/03/13 18:07:32;;;;;;;28.92;18.73;;;;;;;;;;6275919;28;25065;-80
2024/03/13 18:10:33;;;;;;;30.23;19.02;;;;;;;;;;6274115;28;25010;-79
2024/03/13 18:13:35;;;;;;;27.98;18.50;;;;;;;;;;6276048;28;24422;-79
2024/03/13 18:16:36;;;;;;;26.45;17.65;;;;;;;;;;6279480;28;25017;-81
2024/03/13 18:19:39;;;;;;;27.92;18.80;;;;;;;;;;6283601;28;25001;-79
2024/03/13 18:22:41;;;;;;;26.45;17.20;;;;;;;;;;6282989;28;24448;-79
2024/03/13 18:25:47;;;;;;;28.50;17.77;;;;;;;;;;6284510;28;24896;-79
2024/03/13 18:28:48;;;;;;;27.67;18.88;;;;;;;;;;6282376;28;24891;-79
2024/03/13 18:31:50;;;;;;;28.92;18.42;;;;;;;;;;6279453;28;24859;-76
2024/03/13 18:34:52;;;;;;;26.23;17.20;;;;;;;;;;6280501;28;24505;-79
2024/03/13 18:37:58;;;;;;;28.00;18.05;;;;;;;;;;6288677;28;25001;-79
2024/03/13 18:40:59;;;;;;;24.88;17.67;;;;;;;;;;6279053;28;24415;-79
2024/03/13 18:44:01;;;;;;;27.88;17.88;;;;;;;;;;6282399;28;24414;-78
2024/03/13 18:47:03;;;;;;;26.45;17.90;;;;;;;;;;6281902;28;24951;-79
2024/03/13 18:50:07;;;;;;;26.60;17.50;;;;;;;;;;6289048;28;25076;-78
2024/03/13 18:53:11;;;;;;;25.55;17.45;;;;;;;;;;6281987;28;24498;-77
2024/03/13 18:56:13;;;;;;;26.17;17.98;;;;;;;;;;6283726;28;24414;-79
2024/03/13 18:59:14;;;;;;;28.80;18.40;;;;;;;;;;6282731;28;24419;-79
2024/03/13 19:02:16;;;;;;;27.48;18.35;;;;;;;;;;6280345;28;24453;-79
2024/03/13 19:05:17;;;;;;;26.20;18.43;;;;;;;;;;6279411;28;24430;-78
2024/03/13 19:08:19;;;;;;;31.27;20.55;;;;;;;;;;6280438;28;24414;-78
2024/03/13 19:11:20;;;;;;;30.55;19.98;;;;;;;;;;6275670;28;24422;-80